createdAt,value
2019-01-05T00:06:23.840Z,8.03
2019-01-05T00:09:09.739Z,7.30
2019-01-05T00:14:29.466Z,7.17
2019-01-05T00:17:15.784Z,6.30
2019-01-05T00:23:02.607Z,6.73
2019-01-05T00:25:48.515Z,6.97
2019-01-05T00:31:12.103Z,6.47
2019-01-05T00:34:19.799Z,6.20
2019-01-05T00:42:57.047Z,6.27
2019-01-05T00:45:42.976Z,6.07
2019-01-05T00:51:06.653Z,5.33
2019-01-05T00:53:52.548Z,5.80
2019-01-05T00:56:38.486Z,5.50
2019-01-05T00:59:24.383Z,5.67
2019-01-05T01:07:21.944Z,5.50
2019-01-05T01:10:07.892Z,5.17
2019-01-05T01:12:53.788Z,4.90
2019-01-05T01:15:34.835Z,4.83
2019-01-05T01:21:08.181Z,4.83
2019-01-05T01:23:54.082Z,5.80
2019-01-05T01:26:40.004Z,5.73
2019-01-05T01:29:25.905Z,5.90
2019-01-05T01:32:11.851Z,5.60
2019-01-05T01:34:57.734Z,5.80
2019-01-05T01:38:23.404Z,5.77
2019-01-05T01:41:09.283Z,5.83
2019-01-05T01:43:55.224Z,6.60
2019-01-05T01:49:28.589Z,6.60
2019-01-05T01:52:14.471Z,6.30
2019-01-05T01:55:00.405Z,6.33
2019-01-05T02:00:41.604Z,5.97
2019-01-05T02:09:18.767Z,6.53
2019-01-05T02:24:33.773Z,7.00
2019-01-05T02:34:01.214Z,6.50
2019-01-05T02:43:10.707Z,6.50
2019-01-05T02:46:18.415Z,6.40
2019-01-05T02:49:44.584Z,5.97
2019-01-05T03:05:13.165Z,5.53
2019-01-05T03:11:39.351Z,4.87
2019-01-05T03:15:05.040Z,4.80
2019-01-05T03:18:12.718Z,4.87
2019-01-05T03:21:38.340Z,4.63
2019-01-05T03:25:04.022Z,4.60
2019-01-05T03:28:29.674Z,4.73
2019-01-05T03:31:55.361Z,5.00
2019-01-05T03:35:21.042Z,4.57
2019-01-05T03:38:01.646Z,4.70
2019-01-05T03:41:27.346Z,4.40
2019-01-05T03:44:52.982Z,3.97
2019-01-05T03:51:39.251Z,4.40
2019-01-05T03:55:04.889Z,4.20
2019-01-05T03:58:30.596Z,3.63
2019-01-05T04:01:56.269Z,3.67
2019-01-05T04:05:21.908Z,3.47
2019-01-05T04:08:47.526Z,3.00
2019-01-05T04:12:13.170Z,3.10
2019-01-05T04:15:38.818Z,3.30
2019-01-05T04:22:05.316Z,2.83
2019-01-05T04:25:30.998Z,2.97
2019-01-05T04:28:56.636Z,3.00
2019-01-05T04:32:04.320Z,2.83
2019-01-05T04:44:44.940Z,2.47
2019-01-05T04:54:11.616Z,2.40
2019-01-05T05:03:38.129Z,2.20
2019-01-05T05:07:03.769Z,2.13
2019-01-05T05:16:43.705Z,2.03
2019-01-05T05:19:51.386Z,2.27
2019-01-05T05:23:17.015Z,2.30
2019-01-05T05:26:24.731Z,2.40
2019-01-05T05:29:32.407Z,2.27
2019-01-05T05:32:58.022Z,2.50
2019-01-05T05:36:23.665Z,2.60
2019-01-05T05:39:49.258Z,2.53
2019-01-05T05:46:35.350Z,2.90
2019-01-05T05:49:43.094Z,2.80
2019-01-05T05:53:08.689Z,3.07
2019-01-05T05:56:34.497Z,3.20
2019-01-05T06:03:01.136Z,2.97
2019-01-05T06:15:10.809Z,2.43
2019-01-05T06:21:36.845Z,2.30
2019-01-05T06:28:02.992Z,2.30
2019-01-05T06:31:10.691Z,2.17
2019-01-05T06:34:36.327Z,1.90
2019-01-05T06:38:01.965Z,1.97
2019-01-05T06:41:27.620Z,1.60
2019-01-05T06:44:35.311Z,1.90
2019-01-05T06:57:03.140Z,1.57
2019-01-05T07:00:10.835Z,1.53
2019-01-05T07:12:58.832Z,1.40
2019-01-05T07:16:24.436Z,1.50
2019-01-05T07:19:50.086Z,1.27
2019-01-05T07:26:16.202Z,1.33
2019-01-05T07:29:41.838Z,1.33
2019-01-05T07:33:07.524Z,1.50
2019-01-05T07:36:33.215Z,1.70
2019-01-05T07:43:19.133Z,1.50
2019-01-05T07:46:44.821Z,1.47
2019-01-05T07:50:10.471Z,1.80
2019-01-05T07:56:48.311Z,1.27
2019-01-05T07:59:55.996Z,1.10
2019-01-05T08:03:21.674Z,1.10
2019-01-05T08:06:29.405Z,1.43
2019-01-05T08:09:55.051Z,1.60
2019-01-05T08:13:20.655Z,1.23
2019-01-05T08:20:02.840Z,1.60
2019-01-05T08:23:28.502Z,2.00
2019-01-05T08:26:54.107Z,1.90
2019-01-05T08:30:19.782Z,1.60
2019-01-05T08:33:45.434Z,1.50
2019-01-05T08:36:53.168Z,1.87
2019-01-05T08:40:00.848Z,1.73
2019-01-05T08:43:08.496Z,1.80
2019-01-05T08:46:16.178Z,1.87
2019-01-05T08:49:23.870Z,1.80
2019-01-05T08:58:50.623Z,1.80
2019-01-05T09:01:58.318Z,1.97
2019-01-05T09:05:23.957Z,1.70
2019-01-05T09:11:52.021Z,1.43
2019-01-05T09:18:31.323Z,2.03
2019-01-05T09:21:57.005Z,1.80
2019-01-05T09:31:06.231Z,2.23
2019-01-05T09:37:32.635Z,1.90
2019-01-05T09:56:41.092Z,2.00
2019-01-05T10:03:07.446Z,1.50
2019-01-05T10:06:15.162Z,1.83
2019-01-05T10:12:54.647Z,1.70
2019-01-05T10:16:20.332Z,1.70
2019-01-05T10:22:46.757Z,1.70
2019-01-05T10:32:13.065Z,1.40
2019-01-05T10:35:38.711Z,1.60
2019-01-05T10:38:46.359Z,1.80
2019-01-05T10:41:54.041Z,1.60
2019-01-05T10:51:16.433Z,2.40
2019-01-05T10:54:24.119Z,2.03
2019-01-05T11:00:50.286Z,1.87
2019-01-05T11:03:57.978Z,1.60
2019-01-05T11:07:23.578Z,3.13
2019-01-05T11:10:49.250Z,3.40
2019-01-05T11:20:27.300Z,1.70
2019-01-05T11:23:52.901Z,2.00
2019-01-05T11:27:00.586Z,1.80
2019-01-05T11:30:26.187Z,1.83
2019-01-05T11:33:33.884Z,1.80
2019-01-05T11:40:13.416Z,1.90
2019-01-05T11:43:39.111Z,1.57
2019-01-05T11:49:47.840Z,3.60
2019-01-05T11:53:13.537Z,3.47
2019-01-05T11:56:21.242Z,3.90
2019-01-05T11:59:46.916Z,3.17
2019-01-05T12:03:12.569Z,4.03
2019-01-05T12:09:38.715Z,2.30
2019-01-05T12:12:46.395Z,2.60
2019-01-05T12:21:55.591Z,2.10
2019-01-05T12:25:21.237Z,2.17
2019-01-05T12:28:46.848Z,2.40
2019-01-05T12:31:54.575Z,2.50
2019-01-05T12:35:21.285Z,2.27
2019-01-05T12:38:47.114Z,2.43
2019-01-05T12:45:13.871Z,3.97
2019-01-05T12:48:21.575Z,3.87
2019-01-05T12:54:47.778Z,2.60
2019-01-05T12:57:55.464Z,2.20
2019-01-05T13:10:36.279Z,2.50
2019-01-05T13:13:43.975Z,2.20
2019-01-05T13:17:09.575Z,2.17
2019-01-05T13:20:17.271Z,3.33
2019-01-05T13:23:42.933Z,2.43
2019-01-05T13:29:51.095Z,3.10
2019-01-05T13:45:16.407Z,2.30
2019-01-05T13:48:42.095Z,2.10
2019-01-05T13:52:07.758Z,3.30
2019-01-05T13:58:07.519Z,3.30
2019-01-05T14:00:53.411Z,2.40
2019-01-05T14:06:17.066Z,2.63
2019-01-05T14:09:03.009Z,2.60
2019-01-05T14:11:57.702Z,2.77
2019-01-05T14:14:43.593Z,2.50
2019-01-05T14:20:11.834Z,2.63
2019-01-05T14:22:55.239Z,3.17
2019-01-05T14:25:41.179Z,2.70
2019-01-05T14:28:27.100Z,2.70
2019-01-05T14:31:13.022Z,2.93
2019-01-05T14:33:58.953Z,4.37
2019-01-05T14:36:44.887Z,3.73
2019-01-05T14:39:30.820Z,3.40
2019-01-05T14:42:16.732Z,3.67
2019-01-05T14:45:02.650Z,3.40
2019-01-05T14:50:35.988Z,3.53
2019-01-05T14:53:21.915Z,3.20
2019-01-05T14:58:45.426Z,3.60
2019-01-05T15:04:09.234Z,3.67
2019-01-05T15:06:55.177Z,3.73
2019-01-05T15:09:41.068Z,3.97
2019-01-05T15:12:26.995Z,3.83
2019-01-05T15:15:12.925Z,4.17
2019-01-05T15:17:58.857Z,4.00
2019-01-05T15:21:04.593Z,4.57
2019-01-05T15:23:50.509Z,4.07
2019-01-05T15:26:36.417Z,4.23
2019-01-05T15:29:22.365Z,7.20
2019-01-05T15:34:42.250Z,4.70
2019-01-05T15:37:28.169Z,5.90
2019-01-05T15:40:14.078Z,5.33
2019-01-05T15:45:33.526Z,7.73
2019-01-05T15:48:19.438Z,7.50
2019-01-05T15:51:05.376Z,8.00
2019-01-05T15:59:16.532Z,4.97
2019-01-05T16:04:35.923Z,4.50
2019-01-05T16:07:21.867Z,5.03
2019-01-05T16:10:07.938Z,5.00
2019-01-05T16:12:53.894Z,5.03
2019-01-05T16:15:39.808Z,5.77
2019-01-05T16:18:25.716Z,6.10
2019-01-05T16:21:11.662Z,6.57
2019-01-05T16:23:57.597Z,6.53
2019-01-05T16:29:17.089Z,5.77
2019-01-05T16:34:50.451Z,4.80
2019-01-05T16:37:36.369Z,4.93
2019-01-05T16:43:22.738Z,5.77
2019-01-05T16:46:08.629Z,5.67
2019-01-05T16:48:54.779Z,6.33
2019-01-05T16:51:40.695Z,6.63
2019-01-05T16:54:26.609Z,11.33
2019-01-05T16:57:12.487Z,25.60
2019-01-05T16:59:58.445Z,45.50
2019-01-05T17:02:44.348Z,19.70
2019-01-05T17:05:30.285Z,10.87
2019-01-05T17:08:16.193Z,7.83
2019-01-05T17:18:47.253Z,6.67
2019-01-05T17:21:33.148Z,6.70
2019-01-05T17:24:19.116Z,8.60
2019-01-05T17:27:04.954Z,7.77
2019-01-05T17:29:50.886Z,7.67
2019-01-05T17:32:36.792Z,7.93
2019-01-05T17:35:22.834Z,7.03
2019-01-05T17:38:08.737Z,7.43
2019-01-05T17:40:54.696Z,6.53
2019-01-05T17:43:40.573Z,6.53
2019-01-05T17:46:26.506Z,6.63
2019-01-05T17:49:12.431Z,7.60
2019-01-05T17:51:58.358Z,7.33
2019-01-05T17:54:44.232Z,6.80
2019-01-05T17:57:30.168Z,7.00
2019-01-05T18:00:16.226Z,6.27
2019-01-05T18:05:49.643Z,6.93
2019-01-05T18:08:35.562Z,6.93
2019-01-05T18:11:21.486Z,5.97
2019-01-05T18:16:54.821Z,7.27
2019-01-05T18:19:40.733Z,8.37
2019-01-05T18:22:26.748Z,7.23
2019-01-05T18:25:12.694Z,7.67
2019-01-05T18:27:58.608Z,7.10
2019-01-05T18:30:44.485Z,7.30
2019-01-05T18:33:30.409Z,6.97
2019-01-05T18:36:16.501Z,7.77
2019-01-05T18:41:40.158Z,16.03
2019-01-05T18:47:13.517Z,19.60
2019-01-05T18:52:46.877Z,11.30
2019-01-05T18:55:32.818Z,8.97
2019-01-05T18:58:18.713Z,8.30
2019-01-05T19:03:43.761Z,10.40
2019-01-05T19:06:29.732Z,11.07
2019-01-05T19:09:15.694Z,9.20
2019-01-05T19:12:08.594Z,9.57
2019-01-05T19:14:49.504Z,9.13
2019-01-05T19:17:35.500Z,9.20
2019-01-05T19:20:21.577Z,10.57
2019-01-05T19:23:07.650Z,8.57
2019-01-05T19:25:53.570Z,10.13
2019-01-05T19:28:39.511Z,10.73
2019-01-05T19:31:32.892Z,10.37
2019-01-05T19:34:20.232Z,10.67
2019-01-05T19:39:40.621Z,9.60
2019-01-05T19:42:26.577Z,9.23
2019-01-05T19:50:37.657Z,10.07
2019-01-05T19:56:17.401Z,9.90
2019-01-05T19:59:23.168Z,9.50
2019-01-05T20:02:09.189Z,8.73
2019-01-05T20:07:28.909Z,9.67
2019-01-05T20:10:36.882Z,8.43
2019-01-05T20:13:22.895Z,8.40
2019-01-05T20:16:08.859Z,9.87
2019-01-05T20:18:54.743Z,8.87
2019-01-05T20:21:55.478Z,9.80
2019-01-05T20:29:51.062Z,8.73
2019-01-05T20:35:10.830Z,9.03
2019-01-05T20:37:57.629Z,8.93
2019-01-05T20:40:43.566Z,8.60
2019-01-05T20:43:29.543Z,9.93
2019-01-05T20:46:15.543Z,8.47
2019-01-05T20:49:10.665Z,9.13
2019-01-05T20:51:56.510Z,10.67
2019-01-05T20:54:42.513Z,10.60
2019-01-05T20:57:28.423Z,9.60
2019-01-05T21:05:39.957Z,9.30
2019-01-05T21:08:13.681Z,9.63
2019-01-05T21:11:21.379Z,8.40
2019-01-05T21:19:18.670Z,8.97
2019-01-05T21:22:24.863Z,8.40
2019-01-05T21:27:58.217Z,8.60
2019-01-05T21:30:44.126Z,8.23
2019-01-05T21:33:30.088Z,9.07
2019-01-05T21:36:15.994Z,9.23
2019-01-05T21:39:01.946Z,8.83
2019-01-05T21:44:25.927Z,8.27
2019-01-05T21:47:11.882Z,7.90
2019-01-05T21:49:57.815Z,7.70
2019-01-05T21:55:31.163Z,8.13
2019-01-05T21:58:17.066Z,8.40
2019-01-05T22:01:03.001Z,8.40
2019-01-05T22:03:48.914Z,9.20
2019-01-05T22:06:34.838Z,8.67
2019-01-05T22:09:20.754Z,7.97
2019-01-05T22:12:06.706Z,8.03
2019-01-05T22:14:52.600Z,8.73
2019-01-05T22:17:38.544Z,8.40
2019-01-05T22:23:11.875Z,8.97
2019-01-05T22:25:57.783Z,8.87
2019-01-05T22:28:43.726Z,9.33
2019-01-05T22:31:29.635Z,9.93
2019-01-05T22:34:15.562Z,9.23
2019-01-05T22:37:14.974Z,10.00
2019-01-05T22:40:02.332Z,9.37
2019-01-05T22:45:37.687Z,10.83
2019-01-05T22:48:23.631Z,11.73
2019-01-05T22:51:09.550Z,10.90
2019-01-05T22:53:55.447Z,10.50
2019-01-05T22:56:41.385Z,11.90
2019-01-05T22:59:27.288Z,10.43
2019-01-05T23:04:47.169Z,11.63
2019-01-05T23:07:33.073Z,9.37
2019-01-05T23:10:19.035Z,9.93
2019-01-05T23:13:04.937Z,10.53
2019-01-05T23:15:50.878Z,11.13
2019-01-05T23:18:36.784Z,12.30
2019-01-05T23:21:22.710Z,11.27
2019-01-05T23:24:08.625Z,10.57
2019-01-05T23:26:54.552Z,11.23
2019-01-05T23:29:40.446Z,11.27
2019-01-05T23:32:26.393Z,10.80
2019-01-05T23:35:12.273Z,10.93
2019-01-05T23:37:58.220Z,9.70
2019-01-05T23:40:44.113Z,9.60
2019-01-05T23:43:30.058Z,11.43
2019-01-05T23:46:15.918Z,9.63
2019-01-05T23:49:01.915Z,10.23
2019-01-05T23:57:09.158Z,10.43
2019-01-05T23:59:55.042Z,10.17
